Time;durP1;ratioP1;P1;durP2;ratioP2;P2;SDS_P1;SDS_P2;PMS_P1;PMS_P2;Temp;Humidity;BMP_temperature;BMP_pressure;BME280_temperature;BME280_humidity;BME280_pressure;Samples;Min_cycle;Max_cycle;Signal;HPM_P1;HPM_P2
2020/12/09 00:03:36;;;;;;;38.43;18.07;;;;;;;1.99;80.20;99611.50;8666365;33;20407;-72
2020/12/09 00:08:40;;;;;;;51.87;21.03;;;;;;;1.55;81.09;99612.50;8663061;33;20480;-74
2020/12/09 00:13:43;;;;;;;62.87;19.57;;;;;;;1.53;81.74;99618.75;8662903;33;20392;-72
2020/12/09 00:18:45;;;;;;;37.03;18.43;;;;;;;1.54;81.83;99617.84;8663586;33;20466;-73
2020/12/09 00:23:49;;;;;;;34.20;18.03;;;;;;;1.68;82.18;99631.28;8662905;33;20643;-73
2020/12/09 00:28:54;;;;;;;42.80;19.57;;;;;;;1.79;82.59;99633.44;8661868;33;21042;-72
2020/12/09 00:33:58;;;;;;;47.47;22.17;;;;;;;1.93;82.98;99651.28;8661658;33;20252;-73
2020/12/09 00:39:01;;;;;;;52.83;22.17;;;;;;;1.98;82.67;99650.16;8661069;33;20917;-74
2020/12/09 00:44:04;;;;;;;50.73;21.23;;;;;;;2.05;82.26;99658.66;8658060;33;20247;-72
2020/12/09 00:49:06;;;;;;;40.10;20.43;;;;;;;1.84;82.13;99665.72;8658777;33;20679;-72
2020/12/09 00:54:13;;;;;;;52.43;20.30;;;;;;;1.84;82.36;99665.72;8629508;33;20445;-72
2020/12/09 00:59:15;;;;;;;44.13;21.13;;;;;;;2.04;81.95;99677.19;8656523;33;20126;-73
2020/12/09 01:04:18;;;;;;;39.30;19.43;;;;;;;2.11;81.54;99674.22;8629516;33;20420;-73
2020/12/09 01:09:21;;;;;;;39.10;18.97;;;;;;;1.99;81.54;99665.03;8650317;33;20139;-75
2020/12/09 01:14:24;;;;;;;39.90;18.73;;;;;;;1.82;81.51;99677.25;8650056;33;20805;-74
2020/12/09 01:19:26;;;;;;;44.33;20.20;;;;;;;1.65;81.35;99668.28;8648176;33;20138;-75
2020/12/09 01:24:30;;;;;;;39.13;19.73;;;;;;;1.49;81.55;99670.66;8648964;33;20539;-73
2020/12/09 01:29:32;;;;;;;45.70;19.70;;;;;;;1.53;81.46;99664.34;8648053;33;21174;-73
2020/12/09 01:34:34;;;;;;;39.23;18.87;;;;;;;1.70;81.61;99670.69;8648421;33;20154;-73
2020/12/09 01:39:37;;;;;;;40.10;19.17;;;;;;;1.56;81.22;99671.25;8648112;33;20194;-75
2020/12/09 01:44:40;;;;;;;32.67;16.87;;;;;;;1.35;81.21;99667.75;8649458;33;28153;-74
2020/12/09 01:49:42;;;;;;;38.07;18.47;;;;;;;1.39;81.20;99671.09;8649693;33;22277;-75
2020/12/09 01:54:49;;;;;;;39.67;18.07;;;;;;;1.54;81.15;99668.72;8650359;33;20978;-75
2020/12/09 01:59:52;;;;;;;42.90;20.23;;;;;;;1.69;81.27;99680.38;8645316;33;20195;-74
2020/12/09 02:04:56;;;;;;;38.87;19.07;;;;;;;1.86;81.01;99684.06;8633584;33;21922;-76
2020/12/09 02:10:02;;;;;;;50.43;19.20;;;;;;;1.68;80.63;99691.84;8631077;33;20147;-74
2020/12/09 02:15:05;;;;;;;51.67;19.20;;;;;;;1.22;82.41;99688.44;8632988;33;20409;-75
2020/12/09 02:20:08;;;;;;;46.57;18.50;;;;;;;1.50;82.89;99689.94;8629955;33;20182;-75
2020/12/09 02:25:12;;;;;;;56.03;21.63;;;;;;;1.66;82.82;99687.56;8640604;33;20400;-75
2020/12/09 02:30:15;;;;;;;41.03;19.37;;;;;;;1.84;82.72;99693.81;8643260;33;20407;-75
2020/12/09 02:35:17;;;;;;;54.80;20.03;;;;;;;1.82;82.78;99695.69;8605311;33;20415;-74
2020/12/09 02:40:20;;;;;;;56.57;20.20;;;;;;;1.88;82.91;99696.25;8627526;33;20212;-75
2020/12/09 02:45:23;;;;;;;46.13;18.70;;;;;;;1.96;83.01;99690.69;8633494;33;20192;-75
2020/12/09 02:50:25;;;;;;;42.10;18.50;;;;;;;2.02;82.84;99695.69;8642428;33;20146;-75
2020/12/09 02:55:29;;;;;;;51.67;21.17;;;;;;;2.15;82.83;99696.88;8643631;33;20781;-74
2020/12/09 03:00:31;;;;;;;48.07;21.87;;;;;;;2.26;82.77;99698.19;8646112;33;20434;-72
2020/12/09 03:05:33;;;;;;;47.03;21.97;;;;;;;2.32;82.25;99704.03;8658539;33;20632;-74
2020/12/09 03:10:37;;;;;;;42.03;20.37;;;;;;;2.38;82.11;99701.13;8662192;33;20273;-75
2020/12/09 03:15:40;;;;;;;53.03;22.27;;;;;;;2.21;81.75;99704.50;8665993;33;20440;-74
2020/12/09 03:20:45;;;;;;;50.10;20.93;;;;;;;2.22;82.08;99705.34;8663414;33;21016;-75
2020/12/09 03:25:48;;;;;;;49.27;21.00;;;;;;;2.33;82.21;99708.41;8664054;33;21265;-75
2020/12/09 03:30:50;;;;;;;51.43;23.00;;;;;;;2.37;81.72;99707.31;8658318;33;20682;-74
2020/12/09 03:35:53;;;;;;;48.07;20.03;;;;;;;2.14;81.86;99704.81;8657422;33;20450;-75
2020/12/09 03:40:56;;;;;;;52.40;21.00;;;;;;;2.18;82.01;99712.53;8656142;33;20425;-75
2020/12/09 03:45:58;;;;;;;47.20;20.47;;;;;;;2.26;82.22;99721.91;8661117;33;20425;-75
2020/12/09 03:51:00;;;;;;;45.63;21.10;;;;;;;2.42;82.25;99725.59;8665074;33;20302;-75
2020/12/09 03:56:04;;;;;;;53.50;21.17;;;;;;;2.38;81.91;99731.91;8664955;33;20474;-75
2020/12/09 04:01:06;;;;;;;46.20;19.83;;;;;;;2.22;82.25;99736.97;8667567;33;21983;-75
2020/12/09 04:06:09;;;;;;;51.67;19.90;;;;;;;2.06;82.60;99743.81;8667090;33;21044;-75
2020/12/09 04:11:12;;;;;;;56.33;20.13;;;;;;;2.11;83.05;99744.50;8668098;33;20403;-75
2020/12/09 04:16:14;;;;;;;42.60;19.25;;;;;;;2.16;82.90;99747.78;8661327;33;20411;-75
2020/12/09 04:21:16;;;;;;;50.63;19.83;;;;;;;2.16;82.80;99742.53;8658123;33;20203;-74
2020/12/09 04:26:19;;;;;;;53.50;21.47;;;;;;;2.17;83.30;99750.38;8658993;33;20539;-75
2020/12/09 04:31:22;;;;;;;52.00;20.80;;;;;;;2.17;82.90;99755.66;8658422;33;20447;-75
2020/12/09 04:36:24;;;;;;;52.43;22.50;;;;;;;2.17;83.48;99749.53;8656257;33;20480;-75
2020/12/09 04:41:27;;;;;;;48.87;20.67;;;;;;;2.03;83.66;99767.66;8656468;33;20917;-75
2020/12/09 04:46:30;;;;;;;47.83;19.77;;;;;;;1.97;83.66;99763.50;8656233;33;20621;-75
2020/12/09 04:52:20;;;;;;;54.67;21.83;;;;;;;1.98;83.87;99758.19;8656527;33;20154;-74
2020/12/09 04:57:42;;;;;;;54.13;19.10;;;;;;;2.15;84.00;99761.91;8566898;33;21619;-75
2020/12/09 05:02:48;;;;;;;48.17;21.30;;;;;;;2.13;83.89;99766.38;8603070;33;20194;-75
2020/12/09 05:07:53;;;;;;;57.70;20.77;;;;;;;2.10;84.47;99772.63;8598694;33;20143;-74
2020/12/09 05:12:59;;;;;;;48.47;21.37;;;;;;;2.33;84.50;99773.44;8674534;32;20432;-74
2020/12/09 05:18:05;;;;;;;41.87;17.93;;;;;;;2.26;84.21;99777.25;8711583;32;20967;-74
2020/12/09 05:23:09;;;;;;;59.47;21.17;;;;;;;2.21;83.97;99794.09;8713383;32;20241;-73
2020/12/09 05:28:15;;;;;;;47.53;20.83;;;;;;;2.21;84.26;99791.47;8712746;32;20939;-74
2020/12/09 05:33:19;;;;;;;49.53;20.97;;;;;;;2.37;84.79;99794.31;8712689;32;21909;-74
2020/12/09 05:38:22;;;;;;;53.97;21.13;;;;;;;2.53;84.42;99791.91;8711702;32;20395;-74
2020/12/09 05:43:25;;;;;;;54.90;20.83;;;;;;;2.67;84.31;99800.06;8714333;32;21580;-73
2020/12/09 05:48:27;;;;;;;58.37;23.87;;;;;;;2.72;84.50;99797.22;8712970;32;20152;-74
2020/12/09 05:53:32;;;;;;;55.37;22.03;;;;;;;2.70;83.91;99780.59;8711781;32;20558;-74
2020/12/09 05:58:35;;;;;;;65.33;21.80;;;;;;;2.54;84.12;99769.88;8711648;32;21751;-73
2020/12/09 06:03:40;;;;;;;49.07;21.23;;;;;;;2.58;83.98;99778.53;8713512;32;20252;-74
2020/12/09 06:08:46;;;;;;;62.53;22.00;;;;;;;2.68;84.36;99782.44;8711348;32;20407;-73
2020/12/09 06:13:50;;;;;;;56.37;22.10;;;;;;;2.79;84.04;99779.34;8708301;32;20939;-74
2020/12/09 06:18:54;;;;;;;55.90;20.73;;;;;;;2.75;83.95;99778.63;8710124;32;20461;-73
2020/12/09 06:23:56;;;;;;;60.60;22.50;;;;;;;2.71;83.57;99795.50;8660930;32;20443;-73
2020/12/09 06:28:59;;;;;;;53.70;21.00;;;;;;;2.57;83.81;99803.16;8709723;32;20160;-73
2020/12/09 06:34:13;;;;;;;63.97;23.77;;;;;;;2.72;84.19;99820.13;8712618;32;20142;-73
2020/12/09 06:39:18;;;;;;;57.87;21.07;;;;;;;2.77;84.31;99837.47;8687786;32;20413;-74
2020/12/09 06:44:22;;;;;;;64.47;21.70;;;;;;;2.71;83.45;99839.50;8654331;33;20894;-74
2020/12/09 06:49:40;;;;;;;55.13;21.70;;;;;;;2.70;84.20;99838.63;8654122;33;20419;-73
2020/12/09 06:54:44;;;;;;;55.57;22.23;;;;;;;2.75;84.05;99836.66;8653723;33;20396;-74
2020/12/09 06:59:49;;;;;;;53.37;22.73;;;;;;;2.84;84.32;99848.59;8656269;33;20415;-74
2020/12/09 07:05:08;;;;;;;54.80;23.33;;;;;;;2.85;83.58;99848.53;8655676;33;20458;-73
2020/12/09 07:10:20;;;;;;;54.07;22.97;;;;;;;2.84;83.90;99838.88;8656648;33;20699;-73
2020/12/09 07:15:23;;;;;;;62.37;22.47;;;;;;;2.90;83.89;99829.84;8657298;33;20242;-74
2020/12/09 07:20:26;;;;;;;59.63;24.27;;;;;;;2.80;83.25;99816.22;8656831;33;20615;-73
2020/12/09 07:25:28;;;;;;;59.33;22.63;;;;;;;2.52;83.86;99813.91;8630903;33;20401;-74
2020/12/09 07:30:33;;;;;;;59.50;21.70;;;;;;;2.43;83.99;99815.16;8655095;33;20907;-74
2020/12/09 07:35:35;;;;;;;60.87;24.07;;;;;;;2.23;84.96;99834.44;8658611;33;20513;-74
2020/12/09 07:40:37;;;;;;;55.03;20.20;;;;;;;2.32;84.73;99845.53;8657586;33;20426;-73
2020/12/09 07:45:43;;;;;;;12.30;5.97;;;;;;;2.66;85.41;99847.59;8655944;33;21830;-74
2020/12/09 07:50:52;;;;;;;122.27;34.03;;;;;;;3.12;85.45;99866.69;8718074;32;21303;-73
2020/12/09 07:55:55;;;;;;;115.72;36.92;;;;;;;3.45;84.37;99874.88;8720291;32;20681;-73
2020/12/09 08:00:58;;;;;;;75.97;27.07;;;;;;;3.49;82.57;99862.41;8734459;32;20447;-74
2020/12/09 08:06:00;;;;;;;51.78;21.55;;;;;;;3.00;83.21;99864.63;8738537;32;20245;-74
2020/12/09 08:11:07;;;;;;;47.23;21.33;;;;;;;3.42;83.60;99847.75;8732010;32;20195;-75
2020/12/09 08:16:11;;;;;;;49.83;19.60;;;;;;;3.62;82.27;99846.84;8722420;32;21397;-74
2020/12/09 08:21:26;;;;;;;43.17;20.40;;;;;;;3.60;82.20;99854.84;8696287;32;20433;-74
2020/12/09 08:26:33;;;;;;;36.00;18.48;;;;;;;3.69;82.30;99864.13;8722611;32;20466;-74
2020/12/09 08:31:37;;;;;;;40.50;17.77;;;;;;;3.85;81.40;99866.91;8721061;32;20481;-73
2020/12/09 08:36:40;;;;;;;45.50;18.55;;;;;;;3.78;81.36;99887.47;8724827;32;20287;-73
2020/12/09 08:41:42;;;;;;;42.45;17.83;;;;;;;3.91;81.00;99887.75;8725643;32;20455;-74
2020/12/09 08:46:45;;;;;;;43.10;19.50;;;;;;;4.01;80.69;99881.09;8725643;32;20202;-74
2020/12/09 08:51:48;;;;;;;35.80;17.58;;;;;;;4.04;80.33;99883.59;8738321;32;20504;-75
2020/12/09 08:56:50;;;;;;;37.92;18.52;;;;;;;3.74;79.78;99881.47;8728446;32;20723;-74
2020/12/09 09:01:53;;;;;;;46.65;21.27;;;;;;;3.74;80.57;99897.31;8726524;32;20899;-73
2020/12/09 09:06:56;;;;;;;55.60;20.33;;;;;;;3.79;80.66;99894.47;8740877;32;20380;-74
2020/12/09 09:11:58;;;;;;;51.57;21.57;;;;;;;3.78;80.45;99898.03;8732714;32;20847;-74
2020/12/09 09:17:04;;;;;;;41.30;19.10;;;;;;;3.63;80.42;99904.03;8729856;32;20448;-73
2020/12/09 09:22:12;;;;;;;50.43;21.87;;;;;;;3.60;80.78;99912.13;8703434;32;20405;-74
2020/12/09 09:27:14;;;;;;;54.03;22.23;;;;;;;3.63;81.00;99917.25;8722975;32;20421;-74
2020/12/09 09:32:17;;;;;;;48.20;20.87;;;;;;;3.65;80.96;99910.09;8720841;32;20145;-74
2020/12/09 09:37:22;;;;;;;52.67;21.37;;;;;;;3.64;81.16;99921.59;8724622;32;20399;-74
2020/12/09 09:42:24;;;;;;;57.23;22.13;;;;;;;3.69;81.36;99928.38;8726676;32;20406;-73
2020/12/09 09:47:28;;;;;;;59.83;24.33;;;;;;;3.68;81.21;99934.59;8739011;32;20409;-73
2020/12/09 09:52:30;;;;;;;61.50;22.70;;;;;;;3.65;81.32;99941.78;8737212;32;21293;-73
2020/12/09 09:57:33;;;;;;;53.30;21.50;;;;;;;3.72;81.20;99924.75;8737321;32;20482;-73
2020/12/09 10:02:36;;;;;;;58.03;21.10;;;;;;;3.76;81.24;99910.47;8737677;32;20184;-73
2020/12/09 10:07:39;;;;;;;64.77;20.07;;;;;;;3.89;81.14;99916.03;8737547;32;20414;-73
2020/12/09 10:12:42;;;;;;;53.00;21.13;;;;;;;4.02;80.94;99919.81;8737110;32;20668;-73
2020/12/09 10:17:46;;;;;;;52.00;20.60;;;;;;;3.79;80.44;99926.19;8736278;32;20428;-73
2020/12/09 10:22:48;;;;;;;55.10;21.47;;;;;;;3.52;81.44;99925.66;8736487;32;20180;-73
2020/12/09 10:27:52;;;;;;;51.77;21.20;;;;;;;3.65;81.78;99924.19;8738357;32;20174;-73
2020/12/09 10:32:55;;;;;;;53.10;20.40;;;;;;;3.77;81.78;99928.88;8742746;32;20442;-73
2020/12/09 10:37:57;;;;;;;49.80;20.77;;;;;;;3.90;81.26;99941.56;8681934;33;20900;-73
2020/12/09 10:43:00;;;;;;;59.80;21.23;;;;;;;3.93;81.06;99929.03;8678453;33;20209;-73
2020/12/09 10:48:03;;;;;;;49.83;19.13;;;;;;;4.04;80.91;99927.69;8678807;33;20475;-73
2020/12/09 10:53:05;;;;;;;52.87;21.43;;;;;;;3.97;80.65;99935.88;8676491;33;20185;-73
2020/12/09 10:58:07;;;;;;;46.17;19.30;;;;;;;3.92;80.50;99929.09;8680253;33;21523;-73
2020/12/09 11:03:11;;;;;;;56.10;21.50;;;;;;;3.91;80.79;99930.88;8681931;33;20455;-73
2020/12/09 11:08:13;;;;;;;51.53;20.10;;;;;;;3.96;80.57;99926.25;8683699;33;20180;-73
2020/12/09 11:13:16;;;;;;;52.30;20.80;;;;;;;4.01;80.33;99916.31;8683976;33;20493;-73
2020/12/09 11:18:19;;;;;;;50.20;18.80;;;;;;;3.95;79.95;99929.84;8680314;33;20158;-73
2020/12/09 11:23:22;;;;;;;54.60;20.30;;;;;;;3.35;81.62;99926.41;8680287;33;20170;-73
2020/12/09 11:28:24;;;;;;;51.20;20.00;;;;;;;3.52;81.81;99917.72;8685648;33;21249;-73
2020/12/09 11:33:31;;;;;;;57.67;21.60;;;;;;;3.86;81.94;99917.03;8682942;33;20158;-73
2020/12/09 11:38:34;;;;;;;53.67;20.83;;;;;;;3.60;82.08;99927.97;8681434;33;20408;-73
2020/12/09 11:43:36;;;;;;;80.10;26.80;;;;;;;3.73;81.90;99918.53;8657875;33;20202;-73
2020/12/09 11:48:39;;;;;;;58.77;20.90;;;;;;;3.88;81.94;99912.53;8671621;33;20143;-74
2020/12/09 11:53:44;;;;;;;67.23;20.80;;;;;;;3.85;81.23;99904.75;8680040;33;20350;-73
2020/12/09 11:58:46;;;;;;;51.50;21.53;;;;;;;3.53;82.25;99903.59;8683142;33;20324;-73
2020/12/09 12:03:50;;;;;;;54.73;19.97;;;;;;;3.73;82.33;99892.97;8682696;33;20525;-73
2020/12/09 12:08:54;;;;;;;56.53;19.50;;;;;;;3.51;81.97;99901.03;8678084;33;21855;-73
2020/12/09 12:13:56;;;;;;;58.27;19.47;;;;;;;4.00;81.84;99896.13;8642519;33;20154;-73
2020/12/09 12:19:00;;;;;;;52.90;19.80;;;;;;;4.21;81.30;99896.00;8666965;33;21906;-72
2020/12/09 12:24:02;;;;;;;57.17;20.53;;;;;;;4.01;80.59;99897.81;8666572;33;20617;-73
2020/12/09 12:29:04;;;;;;;56.25;20.50;;;;;;;3.99;80.47;99904.97;8643897;33;20181;-74
2020/12/09 12:34:07;;;;;;;48.40;18.23;;;;;;;3.92;80.41;99897.38;8668937;33;20483;-73
2020/12/09 12:39:10;;;;;;;51.60;19.93;;;;;;;3.96;81.75;99889.25;8642565;33;20413;-74
2020/12/09 12:44:13;;;;;;;51.40;18.00;;;;;;;4.16;81.32;99896.22;8667616;33;20537;-73
2020/12/09 12:49:17;;;;;;;59.13;20.47;;;;;;;4.13;80.56;99885.78;8676297;33;20410;-74
2020/12/09 12:54:19;;;;;;;44.90;17.77;;;;;;;4.11;80.42;99890.28;8678927;33;20172;-74
2020/12/09 12:59:22;;;;;;;55.53;20.13;;;;;;;4.13;80.15;99884.94;8653051;33;20477;-74
2020/12/09 13:04:25;;;;;;;46.77;17.97;;;;;;;3.93;80.15;99880.63;8681125;33;20244;-74
2020/12/09 13:09:27;;;;;;;50.23;19.13;;;;;;;3.85;80.40;99894.19;8678562;33;20178;-73
2020/12/09 13:14:30;;;;;;;52.80;19.87;;;;;;;3.89;80.45;99900.16;8682034;33;20523;-74
2020/12/09 13:19:33;;;;;;;51.77;20.13;;;;;;;3.90;80.37;99889.53;8679249;33;20437;-73
2020/12/09 13:24:35;;;;;;;55.40;18.23;;;;;;;4.01;79.69;99894.31;8675261;33;20195;-74
2020/12/09 13:29:38;;;;;;;57.20;21.33;;;;;;;4.12;80.02;99899.94;8663227;33;21076;-74
2020/12/09 13:34:41;;;;;;;50.43;19.73;;;;;;;4.29;79.77;99893.00;8659031;33;20177;-74
2020/12/09 13:39:44;;;;;;;52.37;19.53;;;;;;;4.29;79.54;99899.13;8633869;33;20452;-74
2020/12/09 13:44:46;;;;;;;56.37;21.97;;;;;;;4.14;79.52;99903.38;8657214;33;20386;-73
2020/12/09 13:49:49;;;;;;;57.57;21.87;;;;;;;4.32;79.62;99900.78;8654481;33;20177;-73
2020/12/09 13:54:52;;;;;;;48.60;20.07;;;;;;;4.27;78.97;99900.97;8664755;32;20611;-74
2020/12/09 13:59:54;;;;;;;50.57;20.53;;;;;;;4.12;78.66;99914.97;8718926;32;20990;-74
2020/12/09 14:04:57;;;;;;;53.20;21.53;;;;;;;4.15;78.57;99907.72;8691316;32;20268;-73
2020/12/09 14:09:59;;;;;;;55.07;22.77;;;;;;;4.07;78.42;99924.91;8712415;32;20245;-74
2020/12/09 14:15:02;;;;;;;65.17;28.53;;;;;;;4.02;78.20;99922.47;8714220;32;20437;-74
2020/12/09 14:20:09;;;;;;;44.17;18.50;;;;;;;3.86;78.67;99926.75;8675617;32;20181;-74
2020/12/09 14:25:11;;;;;;;54.50;21.40;;;;;;;3.66;79.86;99925.03;8687042;32;20911;-74
2020/12/09 14:30:19;;;;;;;57.60;21.77;;;;;;;3.69;79.67;99938.09;8709707;32;20980;-73
2020/12/09 14:35:23;;;;;;;400.00;153.27;;;;;;;3.82;79.60;99943.69;8709189;32;20550;-73
2020/12/09 14:40:25;;;;;;;59.90;23.07;;;;;;;3.59;79.96;99932.34;8681637;32;20416;-72
2020/12/09 14:45:27;;;;;;;43.90;17.93;;;;;;;3.62;79.99;99921.69;8707886;32;20556;-74
2020/12/09 14:50:31;;;;;;;46.97;21.43;;;;;;;3.85;79.85;99923.25;8711552;32;20337;-74
2020/12/09 14:55:33;;;;;;;50.77;20.13;;;;;;;3.82;79.54;99933.13;8710639;32;20177;-74
2020/12/09 15:00:36;;;;;;;48.77;22.07;;;;;;;3.81;79.33;99934.88;8715128;32;20535;-72
2020/12/09 15:05:39;;;;;;;54.10;21.60;;;;;;;3.84;79.06;99941.81;8708543;32;20420;-74
2020/12/09 15:10:41;;;;;;;50.00;20.33;;;;;;;3.86;79.22;99943.47;8707375;32;20159;-72
2020/12/09 15:15:44;;;;;;;55.03;21.57;;;;;;;3.88;78.80;99935.47;8707285;32;20914;-73
2020/12/09 15:20:55;;;;;;;60.55;23.77;;;;;;;3.76;78.86;99940.41;8707823;32;20538;-73
2020/12/09 15:25:57;;;;;;;62.87;24.70;;;;;;;3.72;79.59;99943.25;8711383;32;20439;-74
2020/12/09 15:31:00;;;;;;;68.63;30.03;;;;;;;3.72;79.55;99953.81;8711575;32;20813;-72
2020/12/09 15:36:03;;;;;;;51.80;21.57;;;;;;;3.79;79.53;99948.19;8715280;32;20427;-74
2020/12/09 15:41:06;;;;;;;55.50;24.70;;;;;;;3.77;79.60;99949.16;8710625;32;20189;-72
2020/12/09 15:46:08;;;;;;;76.63;31.23;;;;;;;3.74;79.29;99957.25;8710060;32;20412;-71
2020/12/09 15:51:14;;;;;;;58.00;21.47;;;;;;;3.52;79.95;99955.56;8712704;32;20189;-72
2020/12/09 15:56:16;;;;;;;52.33;20.13;;;;;;;3.56;80.24;99954.53;8712978;32;20598;-72
2020/12/09 16:01:20;;;;;;;59.97;22.53;;;;;;;3.58;80.15;99953.56;8712974;32;21167;-72
2020/12/09 16:06:23;;;;;;;53.67;21.13;;;;;;;3.63;80.08;99949.81;8687273;32;20594;-73
2020/12/09 16:11:25;;;;;;;47.73;20.40;;;;;;;3.61;79.98;99953.44;8654337;32;21051;-72
2020/12/09 16:16:27;;;;;;;52.77;20.13;;;;;;;3.54;80.31;99961.66;8658975;33;20227;-74
2020/12/09 16:21:31;;;;;;;58.83;22.73;;;;;;;3.52;79.89;99963.50;8656215;33;20434;-72
2020/12/09 16:26:34;;;;;;;52.83;22.07;;;;;;;3.50;80.53;99965.34;8651690;33;20420;-71
2020/12/09 16:31:36;;;;;;;57.23;21.70;;;;;;;3.53;80.41;99954.63;8645257;32;20200;-74
2020/12/09 16:36:41;;;;;;;55.50;23.57;;;;;;;3.54;80.20;99961.66;8614211;32;20134;-74
2020/12/09 16:41:45;;;;;;;63.60;25.20;;;;;;;3.63;80.30;99960.38;8647831;33;20404;-73
2020/12/09 16:46:50;;;;;;;59.37;23.13;;;;;;;3.63;80.19;99956.88;8648938;33;20174;-73
2020/12/09 16:51:53;;;;;;;61.03;22.77;;;;;;;3.67;80.13;99959.28;8650182;33;20324;-74
2020/12/09 16:56:56;;;;;;;54.03;23.10;;;;;;;3.54;79.79;99950.22;8650556;33;20174;-73
2020/12/09 17:01:59;;;;;;;57.53;20.33;;;;;;;3.59;79.71;99948.22;8650451;33;20400;-72
2020/12/09 17:07:03;;;;;;;62.03;24.23;;;;;;;3.59;79.52;99950.84;8651161;33;20345;-72
2020/12/09 17:12:05;;;;;;;57.23;22.47;;;;;;;3.56;79.66;99943.06;8619457;33;21022;-72
2020/12/09 17:17:07;;;;;;;55.20;21.10;;;;;;;3.56;80.13;99951.00;8646778;33;20448;-72
2020/12/09 17:22:10;;;;;;;60.87;23.63;;;;;;;3.68;79.87;99955.75;8550442;33;20427;-73
2020/12/09 17:27:13;;;;;;;64.90;23.13;;;;;;;3.78;79.73;99951.75;8607032;33;20410;-72
2020/12/09 17:32:15;;;;;;;63.13;25.67;;;;;;;3.76;79.41;99928.97;8680948;32;21837;-72
2020/12/09 17:37:19;;;;;;;64.70;25.97;;;;;;;3.72;79.64;99951.16;8667271;33;20407;-72
2020/12/09 17:42:21;;;;;;;72.63;27.53;;;;;;;3.75;79.90;99957.16;8678278;33;20409;-73
2020/12/09 17:47:24;;;;;;;69.53;27.00;;;;;;;3.75;80.02;99949.22;8674009;33;20196;-73
2020/12/09 17:52:27;;;;;;;68.93;24.83;;;;;;;3.75;79.85;99953.66;8663133;33;20306;-72
2020/12/09 17:57:30;;;;;;;70.57;25.47;;;;;;;3.67;80.37;99954.00;8663138;33;20422;-72
2020/12/09 18:02:32;;;;;;;61.77;22.47;;;;;;;3.69;80.58;99961.88;8642137;33;20458;-72
2020/12/09 18:07:35;;;;;;;64.50;24.00;;;;;;;3.65;80.38;99969.09;8659055;33;20475;-72
2020/12/09 18:12:38;;;;;;;72.50;23.60;;;;;;;3.61;80.67;99970.13;8664012;33;20481;-73
2020/12/09 18:17:40;;;;;;;61.73;24.70;;;;;;;3.65;80.55;99962.94;8662681;33;20123;-72
2020/12/09 18:22:44;;;;;;;58.43;22.87;;;;;;;3.66;79.96;99960.22;8662618;33;20938;-74
2020/12/09 18:27:46;;;;;;;62.17;22.63;;;;;;;3.66;80.47;99962.00;8661195;33;20444;-73
2020/12/09 18:32:48;;;;;;;68.27;24.83;;;;;;;3.69;80.18;99965.38;8661683;33;20158;-74
2020/12/09 18:37:52;;;;;;;61.87;22.97;;;;;;;3.72;80.16;99959.94;8657741;33;20552;-73
2020/12/09 18:42:54;;;;;;;68.60;24.80;;;;;;;3.82;79.94;99959.53;8655160;33;21098;-73
2020/12/09 18:47:56;;;;;;;55.10;22.70;;;;;;;3.85;79.96;99967.31;8657359;33;20407;-72
2020/12/09 18:52:59;;;;;;;57.27;20.17;;;;;;;3.85;79.71;99973.47;8656025;33;20217;-74
2020/12/09 18:58:03;;;;;;;62.60;21.00;;;;;;;3.77;79.82;99976.44;8658663;33;20485;-73
2020/12/09 19:03:05;;;;;;;61.73;21.60;;;;;;;3.70;79.72;99976.78;8662381;33;20404;-74
2020/12/09 19:08:08;;;;;;;53.13;21.23;;;;;;;3.69;79.90;99988.28;8665934;33;20812;-74
2020/12/09 19:13:10;;;;;;;54.30;21.23;;;;;;;3.70;80.09;99984.72;8666795;33;20246;-74
2020/12/09 19:18:13;;;;;;;68.93;24.97;;;;;;;3.71;79.70;99995.22;8677649;33;20974;-74
2020/12/09 19:23:17;;;;;;;59.07;22.73;;;;;;;3.64;80.28;99995.56;8676944;33;20968;-74
2020/12/09 19:28:20;;;;;;;57.33;23.13;;;;;;;3.73;80.46;99995.16;8673598;33;20406;-74
2020/12/09 19:33:22;;;;;;;68.67;23.37;;;;;;;3.78;80.09;100003.72;8671099;33;20636;-73
2020/12/09 19:38:25;;;;;;;67.17;23.03;;;;;;;3.72;80.31;99990.78;8673319;32;20197;-72
2020/12/09 19:43:28;;;;;;;69.20;24.43;;;;;;;3.78;80.45;99987.88;8679214;32;20472;-71
2020/12/09 19:48:30;;;;;;;63.93;24.13;;;;;;;3.70;80.38;99974.16;8674955;33;20512;-74
2020/12/09 19:53:33;;;;;;;73.60;28.10;;;;;;;3.70;80.61;99967.09;8683873;33;20292;-74
2020/12/09 19:58:36;;;;;;;68.57;24.43;;;;;;;3.69;80.09;99975.94;8675671;33;21067;-74
2020/12/09 20:03:38;;;;;;;67.50;26.17;;;;;;;3.74;80.21;99962.53;8686154;33;20237;-73
2020/12/09 20:08:41;;;;;;;68.83;22.90;;;;;;;3.74;80.67;99973.94;8684818;33;20182;-74
2020/12/09 20:13:44;;;;;;;75.00;24.93;;;;;;;3.70;80.32;99975.03;8685499;33;20534;-73
2020/12/09 20:18:47;;;;;;;76.30;24.20;;;;;;;3.69;80.63;99967.16;8661095;33;20150;-73
2020/12/09 20:23:51;;;;;;;70.03;23.70;;;;;;;3.67;80.52;99964.56;8690028;33;20218;-74
2020/12/09 20:28:54;;;;;;;65.00;21.67;;;;;;;3.62;80.65;99974.53;8658384;33;20147;-72
2020/12/09 20:33:56;;;;;;;63.47;24.47;;;;;;;3.59;80.49;99982.56;8682826;33;20419;-74
2020/12/09 20:39:00;;;;;;;61.40;23.60;;;;;;;3.62;80.81;99994.75;8672291;33;22360;-73
2020/12/09 20:44:04;;;;;;;66.60;24.50;;;;;;;3.67;80.82;99995.44;8669108;33;20499;-74
2020/12/09 20:49:08;;;;;;;60.90;22.80;;;;;;;3.67;81.16;99998.91;8668249;33;20182;-73
2020/12/09 20:54:12;;;;;;;71.33;25.37;;;;;;;3.62;80.62;99997.41;8680068;33;20850;-73
2020/12/09 20:59:17;;;;;;;72.10;25.23;;;;;;;3.55;80.83;99984.47;8679709;33;20131;-74
2020/12/09 21:04:19;;;;;;;69.33;23.37;;;;;;;3.57;80.70;99984.44;8681181;33;20147;-73
2020/12/09 21:09:23;;;;;;;63.57;23.43;;;;;;;3.61;80.64;99987.78;8679480;33;20413;-73
2020/12/09 21:14:25;;;;;;;65.00;21.90;;;;;;;3.61;80.80;99978.06;8680267;33;20426;-73
2020/12/09 21:19:27;;;;;;;61.63;22.27;;;;;;;3.59;80.59;99968.50;8660956;33;20173;-73
2020/12/09 21:24:30;;;;;;;74.23;25.50;;;;;;;3.63;80.59;99963.00;8673082;33;20189;-73
2020/12/09 21:29:33;;;;;;;60.63;23.73;;;;;;;3.60;80.37;99946.44;8672911;33;20980;-74
2020/12/09 21:34:35;;;;;;;61.77;23.47;;;;;;;3.51;80.20;99945.06;8662693;33;20496;-75
2020/12/09 21:39:39;;;;;;;70.27;22.93;;;;;;;3.43;80.38;99936.63;8658023;33;20701;-75
2020/12/09 21:44:41;;;;;;;62.73;23.87;;;;;;;3.37;80.70;99927.19;8660159;33;20424;-75
2020/12/09 21:49:44;;;;;;;58.03;21.40;;;;;;;3.32;80.67;99914.22;8611027;33;20138;-75
2020/12/09 21:54:49;;;;;;;61.80;19.90;;;;;;;3.36;80.78;99917.56;8667043;33;21389;-75
2020/12/09 21:59:53;;;;;;;66.83;22.93;;;;;;;3.38;80.55;99921.00;8677933;33;20138;-73
2020/12/09 22:04:56;;;;;;;64.43;21.60;;;;;;;3.38;80.57;99914.88;8684983;33;20448;-74
2020/12/09 22:09:59;;;;;;;61.97;21.10;;;;;;;3.37;80.52;99911.34;8684151;33;20896;-74
2020/12/09 22:15:02;;;;;;;57.80;21.07;;;;;;;3.36;80.74;99909.63;8688041;33;20134;-74
2020/12/09 22:20:06;;;;;;;59.40;21.77;;;;;;;3.39;80.81;99906.84;8671954;33;20127;-74
2020/12/09 22:25:09;;;;;;;68.90;23.70;;;;;;;3.40;80.52;99907.72;8672781;33;20406;-73
2020/12/09 22:30:11;;;;;;;56.03;23.23;;;;;;;3.41;80.73;99905.00;8676149;33;20186;-74
2020/12/09 22:35:14;;;;;;;66.87;22.17;;;;;;;3.42;80.66;99904.06;8669602;33;20467;-74
2020/12/09 22:40:17;;;;;;;52.97;20.03;;;;;;;3.39;80.77;99908.66;8660849;33;20546;-75
2020/12/09 22:45:19;;;;;;;67.00;23.90;;;;;;;3.40;80.81;99903.31;8661742;33;20190;-75
2020/12/09 22:50:22;;;;;;;62.45;21.90;;;;;;;3.44;80.87;99906.66;8635701;33;20516;-74
2020/12/09 22:55:25;;;;;;;57.70;21.87;;;;;;;3.43;80.76;99902.28;8660643;33;20457;-75
2020/12/09 23:00:27;;;;;;;72.40;22.30;;;;;;;3.46;81.04;99899.53;8661070;33;20439;-74
2020/12/09 23:05:29;;;;;;;70.10;24.37;;;;;;;3.43;80.86;99907.56;8671439;33;20400;-75
2020/12/09 23:10:32;;;;;;;61.53;21.53;;;;;;;3.50;80.63;99911.66;8673568;33;20370;-75
2020/12/09 23:15:35;;;;;;;63.80;21.90;;;;;;;3.54;80.54;99911.47;8673383;33;20466;-74
2020/12/09 23:20:38;;;;;;;61.53;22.17;;;;;;;3.60;80.44;99910.31;8675543;33;21064;-74
2020/12/09 23:25:41;;;;;;;65.87;23.50;;;;;;;3.63;80.48;99901.41;8679832;33;20304;-75
2020/12/09 23:30:44;;;;;;;70.70;25.30;;;;;;;3.61;80.43;99903.25;8683501;33;20193;-75